Advent, WV

8:23 PM EDT on September 23, 2014 (GMT -0400)
Poca River Rd | Change Station
CLOSE
Current Station
Personal Weather Station
Location: Sissonville, WV
Elevation: 625 ft
Nearby Weather Stations

Elev 625 ft 38.54 °N, 81.63 °W | Updated 3 minutes ago

Clear
Clear
55.7 °F
Feels Like 55.7 °F
N
0.0
Wind Variable Wind from SSW
Gusts 0.0 mph

Today
High -- | Low -- °F
--% Chance of Precip.
Yesterday
High -- | Low -- °F
Precip. -- in
7:14 AM 7:21 PM
Waning Crescent, 0% visible
Pressure 30.30 in
Visibility 10.0 miles
Clouds Clear
Dew Point 50 °F
Humidity 80%
Rainfall 0.00 in
Snow Depth Not available.
UV 0 out of 12
Pollen 3.10 out of 12
Air Quality Not available.
Flu Activity Not available.
METAR KCRW 232354Z 00000KT 10SM CLR 15/12 A3029 RMK AO2 SLP258 T01500117 10222 20150 53004

More Conditions Fewer Conditions

Pressure 30.30 in
Visibility 10.0 miles
Clouds Clear
Dew Point 50 °F
Humidity 80%
Rainfall 0.00 in
Snow Depth Not available.
UV 0 out of 12
Pollen 3.10 out of 12
Air Quality Not available.
Flu Activity Not available.
METAR KCRW 232354Z 00000KT 10SM CLR 15/12 A3029 RMK AO2 SLP258 T01500117 10222 20150 53004

More Conditions Fewer Conditions

10-Day Weather Forecast

Almanac

Astronomy

Sep. 23, 2014 Rise Set
Actual Time 7:14 AM EDT 7:21 PM EDT
Civil Twilight 6:48 AM EDT 7:48 PM EDT
Nautical Twilight 6:17 AM EDT 8:19 PM EDT
Astronomical Twilight 5:45 AM EDT 8:50 PM EDT
Moon 6:38 AM EDT (9/23) 7:00 PM EDT (9/23)
Length of Visible Light 12h 59m
Length of Day
12h 06m
Tomorrow will be 2m 29s shorter.
Waning Crescent, 0% of the Moon is Illuminated
Today
Waning Crescent
Sep 24
New
Oct 1
First Quarter
Oct 8
Full
Oct 15
Last Quarter

Today's Extremes

State Highs State Lows

Community

WunderPhotos

Upload Photos

1,755,828 photos uploaded!

WunderBlogs® & News

Nearby

Snow Depth

Station Depth Elevation
No new snow has been reported.

Earthquake Activity

City Distance Mag. Time & Date
No recent earthquake activity has been reported nearby.
Minimum magnitude displayed is 2.5.

Coastal Water Temperatures

Place Temperature
No Stations Reporting

Nearby Weather Stations